createdAt,value
2018-06-25T00:00:54.364Z,13.80
2018-06-25T00:01:57.155Z,13.73
2018-06-25T00:02:59.939Z,13.70
2018-06-25T00:04:02.892Z,13.70
2018-06-25T00:05:06.143Z,13.63
2018-06-25T00:06:08.985Z,13.60
2018-06-25T00:07:11.784Z,13.56
2018-06-25T00:08:14.561Z,13.55
2018-06-25T00:09:17.320Z,13.53
2018-06-25T00:10:20.129Z,13.47
2018-06-25T00:11:24.310Z,13.39
2018-06-25T00:12:27.112Z,13.42
2018-06-25T00:13:29.878Z,13.45
2018-06-25T00:14:32.660Z,13.36
2018-06-25T00:56:30.332Z,13.38
2018-06-25T00:57:33.065Z,13.37
2018-06-25T00:58:36.369Z,13.46
2018-06-25T00:59:39.267Z,13.44
2018-06-25T01:00:42.565Z,13.41
2018-06-25T01:01:45.328Z,13.47
2018-06-25T01:02:48.116Z,13.52
2018-06-25T01:03:50.915Z,13.54
2018-06-25T01:04:53.986Z,13.53
2018-06-25T01:05:56.809Z,13.51
2018-06-25T01:06:59.814Z,13.47
2018-06-25T01:08:02.628Z,13.49
2018-06-25T01:09:05.441Z,13.58
2018-06-25T01:10:08.586Z,13.58
2018-06-25T01:11:11.779Z,13.59
2018-06-25T01:12:15.035Z,13.62
2018-06-25T01:13:17.827Z,13.60
2018-06-25T01:14:21.552Z,13.64
2018-06-25T01:15:24.377Z,13.63
2018-06-25T01:16:27.549Z,13.60
2018-06-25T01:17:31.820Z,13.62
2018-06-25T01:18:34.585Z,13.60
2018-06-25T01:19:37.616Z,13.66
2018-06-25T01:20:40.427Z,13.66
2018-06-25T01:21:43.176Z,13.70
2018-06-25T01:22:45.943Z,13.77
2018-06-25T01:23:49.648Z,13.76
2018-06-25T01:24:52.506Z,13.75
2018-06-25T01:25:55.435Z,13.75
2018-06-25T01:26:58.243Z,13.73
2018-06-25T01:28:01.223Z,13.66
2018-06-25T01:29:04.248Z,13.62
2018-06-25T01:30:07.394Z,13.58
2018-06-25T01:31:10.219Z,13.59
2018-06-25T01:32:14.010Z,13.61
2018-06-25T01:33:16.979Z,13.56
2018-06-25T01:34:19.784Z,13.57
2018-06-25T01:35:22.568Z,13.58
2018-06-25T01:36:26.466Z,13.55
2018-06-25T01:37:29.292Z,13.54
2018-06-25T01:38:35.091Z,13.61
2018-06-25T01:39:37.853Z,13.66
2018-06-25T01:40:40.661Z,13.54
2018-06-25T01:41:43.513Z,13.53
2018-06-25T01:42:47.202Z,13.56
2018-06-25T01:43:50.123Z,13.57
2018-06-25T01:44:52.951Z,13.55
2018-06-25T01:45:55.732Z,13.51
2018-06-25T01:46:58.712Z,13.55
2018-06-25T01:48:01.525Z,13.62
2018-06-25T01:49:04.731Z,13.61
2018-06-25T01:50:07.563Z,13.65
2018-06-25T01:51:10.365Z,13.61
2018-06-25T01:52:13.157Z,13.55
2018-06-25T01:53:16.490Z,13.53
2018-06-25T01:54:19.318Z,13.54
2018-06-25T01:55:22.397Z,13.45
2018-06-25T01:56:25.190Z,13.38
2018-06-25T01:57:28.112Z,13.38
2018-06-25T01:58:30.891Z,13.37
2018-06-25T01:59:33.818Z,13.38
2018-06-25T02:00:36.836Z,13.31
2018-06-25T02:01:40.230Z,13.35
2018-06-25T02:02:43.264Z,13.17
2018-06-25T02:03:46.672Z,13.16
2018-06-25T02:04:49.515Z,13.23
2018-06-25T02:05:52.293Z,13.18
2018-06-25T02:06:55.078Z,13.24
2018-06-25T02:07:58.179Z,13.27
2018-06-25T02:09:01.014Z,13.29
2018-06-25T02:10:03.861Z,13.33
2018-06-25T02:11:06.651Z,13.38
2018-06-25T02:12:09.638Z,13.43
2018-06-25T02:13:12.430Z,13.12
2018-06-25T02:14:15.561Z,12.86
2018-06-25T02:15:18.350Z,12.88
2018-06-25T02:16:22.242Z,12.96
2018-06-25T02:17:25.114Z,12.96
2018-06-25T02:18:27.920Z,12.95
2018-06-25T02:19:30.761Z,13.03
2018-06-25T02:20:33.872Z,13.10
2018-06-25T02:21:36.670Z,13.04
2018-06-25T02:22:39.474Z,12.95
2018-06-25T02:23:42.270Z,12.95
2018-06-25T02:24:45.064Z,12.99
2018-06-25T02:25:47.870Z,12.95
2018-06-25T02:26:50.962Z,12.96
2018-06-25T02:27:53.781Z,12.95
2018-06-25T02:28:56.643Z,12.94
2018-06-25T02:29:59.510Z,13.01
2018-06-25T02:31:02.433Z,12.92
2018-06-25T02:32:05.192Z,12.96
2018-06-25T02:33:08.231Z,12.97
2018-06-25T02:34:10.995Z,13.05
2018-06-25T02:35:13.973Z,13.07
2018-06-25T02:36:16.794Z,13.10
2018-06-25T02:37:19.581Z,13.17
2018-06-25T02:38:22.403Z,13.16
2018-06-25T02:39:25.465Z,13.19
2018-06-25T02:40:28.275Z,12.98
2018-06-25T02:41:32.017Z,12.92
2018-06-25T02:42:34.788Z,12.96
2018-06-25T02:43:37.592Z,12.96
2018-06-25T02:44:41.970Z,12.90
2018-06-25T02:45:46.785Z,12.80
2018-06-25T02:46:50.123Z,12.79
2018-06-25T02:47:53.882Z,12.72
2018-06-25T02:48:59.635Z,12.73
2018-06-25T02:50:02.929Z,12.77
2018-06-25T02:51:05.715Z,12.82
2018-06-25T02:52:09.222Z,12.79
2018-06-25T02:53:12.071Z,12.77
2018-06-25T02:54:15.000Z,12.77
2018-06-25T02:55:17.797Z,12.66
2018-06-25T02:56:20.595Z,12.80
2018-06-25T02:57:23.523Z,12.69
2018-06-25T02:58:28.347Z,12.77
2018-06-25T02:59:31.113Z,12.85
2018-06-25T03:00:33.924Z,12.78
2018-06-25T03:01:36.673Z,12.81
2018-06-25T03:02:39.471Z,12.80
2018-06-25T03:03:42.277Z,12.86
2018-06-25T03:04:45.353Z,12.90
2018-06-25T03:05:48.148Z,12.96
2018-06-25T03:06:50.936Z,12.95
2018-06-25T03:07:53.727Z,12.98
2018-06-25T03:08:56.511Z,12.98
2018-06-25T03:09:59.282Z,13.03
2018-06-25T03:11:02.072Z,13.08
2018-06-25T03:12:04.871Z,13.13
2018-06-25T03:13:07.677Z,13.08
2018-06-25T03:14:10.510Z,13.07
2018-06-25T03:15:14.439Z,13.08
2018-06-25T03:16:17.776Z,13.09
2018-06-25T03:17:20.566Z,13.08
2018-06-25T03:18:23.646Z,13.15
2018-06-25T03:19:26.697Z,13.15
2018-06-25T03:20:29.473Z,13.11
2018-06-25T03:21:32.298Z,12.91
2018-06-25T03:22:35.372Z,12.84
2018-06-25T03:23:38.134Z,12.80
2018-06-25T03:24:40.938Z,12.91
2018-06-25T03:25:43.763Z,12.80
2018-06-25T03:26:46.587Z,12.86
2018-06-25T03:27:49.361Z,12.92
2018-06-25T03:28:52.553Z,12.89
2018-06-25T03:29:55.395Z,12.91
2018-06-25T03:30:58.194Z,12.96
2018-06-25T03:32:00.997Z,13.03
2018-06-25T03:33:03.805Z,13.07
2018-06-25T03:34:06.614Z,13.08
2018-06-25T03:35:09.682Z,13.04
2018-06-25T03:36:12.485Z,12.92
2018-06-25T03:37:15.279Z,12.82
2018-06-25T03:38:18.088Z,12.78
2018-06-25T03:39:20.859Z,12.94
2018-06-25T03:40:23.653Z,12.81
2018-06-25T03:41:26.886Z,12.90
2018-06-25T03:42:29.753Z,12.91
2018-06-25T03:43:32.556Z,12.96
2018-06-25T03:44:35.367Z,12.79
2018-06-25T03:45:38.337Z,12.85
2018-06-25T03:46:41.133Z,12.79
2018-06-25T03:47:44.234Z,12.67
2018-06-25T03:48:47.031Z,12.61
2018-06-25T03:49:49.822Z,12.56
2018-06-25T03:50:52.615Z,12.52
2018-06-25T03:51:55.382Z,12.59
2018-06-25T03:52:58.211Z,12.63
2018-06-25T03:54:01.010Z,12.62
2018-06-25T03:55:03.796Z,12.56
2018-06-25T03:56:06.603Z,12.58
2018-06-25T03:57:09.482Z,12.62
2018-06-25T03:58:12.284Z,12.57
2018-06-25T03:59:15.087Z,12.58
2018-06-25T04:00:18.173Z,12.64
2018-06-25T04:01:21.859Z,12.73
2018-06-25T04:02:25.341Z,12.63
2018-06-25T04:03:29.214Z,12.64
2018-06-25T04:04:32.036Z,12.60
2018-06-25T04:05:35.503Z,12.56
2018-06-25T04:06:38.597Z,12.61
2018-06-25T04:07:41.403Z,12.66
2018-06-25T04:08:44.471Z,12.68
2018-06-25T04:09:48.084Z,12.73
2018-06-25T04:10:50.942Z,12.74
2018-06-25T04:11:53.806Z,12.77
2018-06-25T04:12:57.021Z,12.80
2018-06-25T04:13:59.914Z,12.90
2018-06-25T04:15:02.703Z,12.93
2018-06-25T04:16:05.584Z,12.98
2018-06-25T04:17:08.427Z,13.02
2018-06-25T04:18:11.213Z,13.06
2018-06-25T04:19:14.401Z,12.98
2018-06-25T04:20:17.234Z,13.00
2018-06-25T04:21:20.234Z,13.07
2018-06-25T04:22:23.564Z,13.07
2018-06-25T04:23:27.252Z,13.00
2018-06-25T04:24:30.603Z,13.01
2018-06-25T04:25:34.833Z,13.08
2018-06-25T04:26:37.644Z,13.12
2018-06-25T04:27:42.381Z,13.11
2018-06-25T04:28:45.215Z,13.08
2018-06-25T04:29:48.045Z,13.08
2018-06-25T04:30:50.845Z,13.15
2018-06-25T04:31:55.133Z,13.18
2018-06-25T04:32:57.906Z,13.18
2018-06-25T04:34:01.290Z,13.24
2018-06-25T04:35:04.106Z,13.29
2018-06-25T04:36:06.888Z,13.33
2018-06-25T04:37:10.372Z,13.32
2018-06-25T04:38:13.501Z,13.28
2018-06-25T04:39:16.312Z,13.24
2018-06-25T04:40:20.195Z,13.19
2018-06-25T04:41:23.019Z,13.16
2018-06-25T04:42:25.815Z,13.11
2018-06-25T04:43:29.573Z,13.12
2018-06-25T04:44:33.602Z,13.21
2018-06-25T04:45:36.399Z,13.26
2018-06-25T04:46:39.565Z,13.32
2018-06-25T04:47:42.533Z,13.36
2018-06-25T04:48:45.929Z,13.38
2018-06-25T04:49:48.925Z,13.39
2018-06-25T04:50:52.097Z,13.30
2018-06-25T04:51:54.931Z,13.18
2018-06-25T04:52:57.755Z,13.20
2018-06-25T04:54:00.550Z,13.24
2018-06-25T04:55:03.359Z,13.19
2018-06-25T04:56:06.151Z,13.23
2018-06-25T04:57:09.337Z,13.32
2018-06-25T04:58:12.274Z,13.35
2018-06-25T04:59:15.093Z,13.37
2018-06-25T05:00:17.995Z,13.30
2018-06-25T05:01:21.687Z,13.30
2018-06-25T05:02:24.565Z,13.31
2018-06-25T05:03:27.945Z,13.34
2018-06-25T05:04:30.731Z,13.35
2018-06-25T05:05:33.685Z,13.41
2018-06-25T05:06:36.525Z,13.47
2018-06-25T05:07:39.325Z,13.48
2018-06-25T05:08:43.211Z,13.50
2018-06-25T05:09:46.482Z,13.48
2018-06-25T05:10:49.290Z,13.42
2018-06-25T05:11:52.125Z,13.42
2018-06-25T05:12:54.958Z,13.36
2018-06-25T05:13:57.790Z,13.40
2018-06-25T05:15:00.621Z,13.44
2018-06-25T05:16:03.986Z,13.42
2018-06-25T05:17:07.503Z,13.43
2018-06-25T05:18:10.270Z,13.39
2018-06-25T05:19:13.070Z,13.45
2018-06-25T05:20:15.877Z,13.49
2018-06-25T05:21:18.663Z,13.44
2018-06-25T05:22:22.780Z,13.44
2018-06-25T05:23:26.011Z,13.31
2018-06-25T05:24:28.821Z,13.37
2018-06-25T05:25:31.736Z,13.38
2018-06-25T05:26:34.611Z,13.36
2018-06-25T05:27:37.405Z,13.36
2018-06-25T05:28:40.206Z,13.40
2018-06-25T05:29:43.162Z,13.47
2018-06-25T05:30:46.021Z,13.46
2018-06-25T05:31:48.829Z,13.45
2018-06-25T05:32:51.613Z,13.41
2018-06-25T05:33:54.432Z,13.38
2018-06-25T05:34:57.670Z,13.38
2018-06-25T05:36:00.481Z,13.40
2018-06-25T05:37:03.999Z,13.39
2018-06-25T05:38:06.809Z,13.31
2018-06-25T05:39:10.392Z,13.34
2018-06-25T05:40:13.173Z,13.36
2018-06-25T05:41:16.410Z,13.41
2018-06-25T05:42:22.952Z,13.40
2018-06-25T05:43:25.778Z,13.32
2018-06-25T05:44:28.618Z,13.30
2018-06-25T05:45:31.430Z,13.29
2018-06-25T05:46:34.221Z,13.27
2018-06-25T05:47:37.511Z,13.28
2018-06-25T05:48:40.333Z,13.32
2018-06-25T05:49:43.167Z,13.41
2018-06-25T05:50:45.998Z,13.48
2018-06-25T05:51:48.798Z,13.55
2018-06-25T05:52:51.601Z,13.59
2018-06-25T05:53:55.734Z,13.69
2018-06-25T05:54:58.548Z,13.80
2018-06-25T05:56:02.354Z,13.80
2018-06-25T05:57:05.164Z,13.85
2018-06-25T05:58:08.098Z,13.93
2018-06-25T05:59:12.281Z,13.99
2018-06-25T06:00:15.496Z,14.08
2018-06-25T06:01:19.583Z,14.17
2018-06-25T06:02:22.359Z,14.12
2018-06-25T06:03:25.127Z,14.10
2018-06-25T06:04:28.729Z,14.13
2018-06-25T06:05:31.489Z,14.19
2018-06-25T06:06:34.746Z,14.17
2018-06-25T06:07:37.658Z,14.27
2018-06-25T06:08:40.454Z,14.32
2018-06-25T06:09:43.409Z,14.34
2018-06-25T06:10:46.270Z,14.33
2018-06-25T06:11:49.082Z,14.37
2018-06-25T06:12:52.207Z,14.39
2018-06-25T06:13:55.061Z,14.43
2018-06-25T06:14:57.946Z,14.46
2018-06-25T06:16:00.884Z,14.43
2018-06-25T06:17:03.725Z,14.50
2018-06-25T06:18:06.564Z,14.51
2018-06-25T06:19:09.915Z,14.61
2018-06-25T06:20:12.737Z,14.75
2018-06-25T06:21:15.565Z,14.76
2018-06-25T06:22:18.450Z,14.91
2018-06-25T06:23:21.260Z,14.92
2018-06-25T06:24:24.092Z,14.94
2018-06-25T06:25:26.922Z,15.13
2018-06-25T06:26:29.733Z,15.20
2018-06-25T06:27:33.735Z,15.29
2018-06-25T06:28:36.854Z,15.32
2018-06-25T06:29:39.675Z,15.34
2018-06-25T06:30:42.982Z,15.28
2018-06-25T06:31:45.823Z,15.22
2018-06-25T06:32:48.712Z,15.24
2018-06-25T06:33:51.519Z,15.24
2018-06-25T06:34:54.418Z,15.20
2018-06-25T06:35:57.221Z,15.21
2018-06-25T06:37:00.587Z,15.15
2018-06-25T06:38:03.480Z,14.99
2018-06-25T06:39:06.318Z,14.91
2018-06-25T06:40:15.378Z,14.97
2018-06-25T06:41:18.182Z,14.75
2018-06-25T06:42:20.974Z,14.72
2018-06-25T06:43:24.639Z,14.74
2018-06-25T06:44:28.464Z,14.81
2018-06-25T06:45:31.395Z,14.91
2018-06-25T06:46:34.120Z,14.94
2018-06-25T06:47:36.882Z,14.98
2018-06-25T06:48:39.648Z,14.98
2018-06-25T06:49:47.607Z,14.91
2018-06-25T06:50:50.406Z,14.95
2018-06-25T06:51:54.608Z,14.95
2018-06-25T06:52:57.402Z,14.93
2018-06-25T06:54:00.992Z,14.89
2018-06-25T06:55:03.883Z,14.81
2018-06-25T06:56:07.005Z,14.74
2018-06-25T06:57:09.800Z,14.69
2018-06-25T06:58:12.570Z,14.74
2018-06-25T06:59:15.445Z,14.72
2018-06-25T07:00:18.232Z,14.62
2018-06-25T07:01:21.724Z,14.54
2018-06-25T07:02:24.858Z,14.55
2018-06-25T07:03:27.643Z,14.54
2018-06-25T07:04:32.492Z,14.56
2018-06-25T07:05:35.327Z,14.68
2018-06-25T07:06:39.115Z,14.85
2018-06-25T07:07:41.916Z,14.99
2018-06-25T07:08:46.024Z,15.14
2018-06-25T07:09:48.883Z,15.16
2018-06-25T07:10:51.694Z,15.21
2018-06-25T07:11:54.750Z,15.39
2018-06-25T07:12:57.583Z,15.51
2018-06-25T07:14:00.420Z,15.50
2018-06-25T07:15:03.628Z,15.57
2018-06-25T07:16:10.509Z,15.60
2018-06-25T07:17:13.978Z,15.65
2018-06-25T07:18:17.758Z,15.87
2018-06-25T07:19:21.013Z,15.91
2018-06-25T07:20:23.802Z,15.91
2018-06-25T07:21:27.948Z,15.94
2018-06-25T07:22:30.737Z,15.86
2018-06-25T07:23:33.546Z,15.81
2018-06-25T07:24:36.378Z,15.77
2018-06-25T07:25:39.371Z,15.73
2018-06-25T07:26:42.220Z,15.66
2018-06-25T07:27:45.344Z,15.61
2018-06-25T07:28:49.929Z,15.59
2018-06-25T07:29:54.124Z,15.65
2018-06-25T07:30:58.908Z,15.79
2018-06-25T07:32:01.875Z,15.80
2018-06-25T07:33:04.667Z,15.90
2018-06-25T07:34:07.854Z,16.05
2018-06-25T07:35:10.691Z,16.12
2018-06-25T07:36:13.470Z,15.93
2018-06-25T07:37:16.306Z,15.84
2018-06-25T07:38:19.689Z,15.87
2018-06-25T07:39:24.069Z,15.90
2018-06-25T07:40:27.169Z,15.98
2018-06-25T07:41:29.960Z,16.03
2018-06-25T07:42:33.751Z,15.99
2018-06-25T07:43:36.547Z,16.01
2018-06-25T07:44:40.139Z,16.16
2018-06-25T07:45:43.930Z,16.28
2018-06-25T07:46:47.914Z,16.51
2018-06-25T07:47:50.698Z,16.72
2018-06-25T07:48:53.486Z,16.89
2018-06-25T07:49:56.258Z,16.94
2018-06-25T07:51:01.717Z,17.18
2018-06-25T07:52:05.526Z,17.28
2018-06-25T07:53:08.630Z,17.18
2018-06-25T07:54:11.427Z,17.10
2018-06-25T07:55:15.271Z,16.94
2018-06-25T07:56:18.090Z,16.89
2018-06-25T07:57:20.884Z,16.78
2018-06-25T07:58:23.693Z,16.60
2018-06-25T07:59:26.498Z,16.64
2018-06-25T08:00:29.321Z,16.54
2018-06-25T08:01:32.180Z,16.43
2018-06-25T08:02:34.983Z,16.35
2018-06-25T08:03:38.495Z,16.29
2018-06-25T08:04:43.218Z,16.23
2018-06-25T08:05:47.058Z,16.16
2018-06-25T08:06:51.420Z,16.16
2018-06-25T08:07:54.411Z,16.12
2018-06-25T08:08:58.474Z,16.11
2018-06-25T08:10:02.570Z,16.22
2018-06-25T08:11:05.347Z,16.21
2018-06-25T08:12:08.156Z,16.05
2018-06-25T08:13:13.074Z,16.02
2018-06-25T08:14:15.871Z,16.05
2018-06-25T08:15:18.674Z,16.07
2018-06-25T08:16:22.759Z,16.22
2018-06-25T08:17:25.586Z,16.33
2018-06-25T08:18:28.365Z,16.31
2018-06-25T08:19:31.173Z,16.36
2018-06-25T08:20:34.155Z,16.60
2018-06-25T08:21:37.109Z,16.83
2018-06-25T08:22:40.340Z,16.93
2018-06-25T08:23:43.540Z,16.99
2018-06-25T08:24:46.360Z,16.86
2018-06-25T08:25:49.243Z,16.87
2018-06-25T08:26:52.032Z,16.79
2018-06-25T08:27:54.869Z,16.70
2018-06-25T08:29:00.144Z,16.70
2018-06-25T08:30:03.451Z,16.70
2018-06-25T08:31:06.402Z,16.52
2018-06-25T08:32:09.179Z,16.58
2018-06-25T08:33:12.019Z,16.77
2018-06-25T08:34:15.418Z,16.93
2018-06-25T08:35:18.709Z,17.02
2018-06-25T08:36:21.540Z,17.05
2018-06-25T08:37:24.402Z,17.01
2018-06-25T08:38:27.722Z,16.84
2018-06-25T08:39:30.494Z,16.74
2018-06-25T08:40:33.297Z,16.72
2018-06-25T08:41:36.395Z,16.80
2018-06-25T08:42:39.180Z,16.84
2018-06-25T08:43:41.960Z,16.86
2018-06-25T08:44:45.506Z,16.90
2018-06-25T08:45:48.364Z,16.88
2018-06-25T08:46:51.178Z,16.92
2018-06-25T08:47:54.275Z,16.98
2018-06-25T08:48:59.460Z,16.92
2018-06-25T08:50:02.259Z,17.02
2018-06-25T08:51:05.099Z,17.04
2018-06-25T08:52:07.910Z,17.02
2018-06-25T08:53:10.695Z,17.05
2018-06-25T08:54:13.780Z,17.26
2018-06-25T08:55:16.538Z,17.40
2018-06-25T08:56:19.350Z,17.54
2018-06-25T08:57:22.131Z,17.56
2018-06-25T08:58:25.004Z,17.71
2018-06-25T08:59:27.984Z,17.66
2018-06-25T09:00:31.095Z,17.64
2018-06-25T09:01:33.971Z,17.68
2018-06-25T09:02:37.647Z,17.65
2018-06-25T09:03:41.664Z,17.88
2018-06-25T09:04:44.485Z,17.92
2018-06-25T09:05:47.335Z,17.79
2018-06-25T09:06:50.799Z,18.03
2018-06-25T09:07:53.569Z,18.09
2018-06-25T09:08:56.639Z,18.49
2018-06-25T09:09:59.506Z,18.57
2018-06-25T09:11:02.335Z,18.63
2018-06-25T09:12:05.523Z,18.48
2018-06-25T09:13:08.332Z,18.20
2018-06-25T09:14:11.736Z,18.03
2018-06-25T09:15:15.252Z,17.79
2018-06-25T09:16:18.103Z,17.62
2018-06-25T09:17:21.177Z,17.42
2018-06-25T09:18:24.445Z,17.30
2018-06-25T09:19:28.395Z,17.10
2018-06-25T09:20:31.149Z,17.01
2018-06-25T09:21:34.399Z,17.04
2018-06-25T09:22:38.740Z,17.09
2018-06-25T09:23:41.566Z,17.19
2018-06-25T09:24:44.698Z,17.27
2018-06-25T09:25:48.644Z,17.27
2018-06-25T09:26:52.211Z,17.31
2018-06-25T09:27:55.768Z,17.31
2018-06-25T09:29:00.604Z,17.36
2018-06-25T09:30:03.502Z,17.58
2018-06-25T09:31:06.749Z,18.01
2018-06-25T09:32:09.600Z,18.46
2018-06-25T09:33:12.440Z,18.92
2018-06-25T09:34:21.271Z,18.98
2018-06-25T09:35:24.141Z,18.93
2018-06-25T09:36:31.346Z,19.13
2018-06-25T09:37:36.595Z,19.24
2018-06-25T09:38:39.459Z,19.23
2018-06-25T09:39:43.393Z,19.17
2018-06-25T09:40:47.638Z,18.88
2018-06-25T09:41:50.694Z,18.79
2018-06-25T09:42:53.497Z,18.67
2018-06-25T09:43:56.745Z,18.55
2018-06-25T09:45:00.396Z,18.52
2018-06-25T09:46:03.943Z,18.71
2018-06-25T09:47:08.101Z,18.78
2018-06-25T09:48:10.890Z,18.72
2018-06-25T09:49:13.731Z,18.72
2018-06-25T09:50:16.866Z,18.83
2018-06-25T09:51:19.651Z,18.92
2018-06-25T09:52:22.493Z,18.83
2018-06-25T09:53:25.368Z,18.67
2018-06-25T09:54:28.931Z,18.51
2018-06-25T09:55:31.851Z,18.47
2018-06-25T09:56:35.721Z,18.38
2018-06-25T09:57:39.676Z,18.32
2018-06-25T09:58:42.482Z,18.24
2018-06-25T09:59:45.951Z,18.24
2018-06-25T10:00:53.763Z,18.25
2018-06-25T10:01:57.778Z,18.24
2018-06-25T10:03:01.285Z,18.27
2018-06-25T10:04:04.666Z,18.20
2018-06-25T10:05:07.553Z,18.03
2018-06-25T10:06:11.080Z,17.93
2018-06-25T10:07:13.894Z,18.07
2018-06-25T10:08:17.516Z,18.07
2018-06-25T10:09:20.716Z,18.00
2018-06-25T10:10:24.484Z,18.14
2018-06-25T10:11:27.333Z,18.30
2018-06-25T10:12:30.141Z,18.33
2018-06-25T10:13:32.895Z,18.33
2018-06-25T10:14:35.703Z,18.25
2018-06-25T10:15:40.019Z,18.31
2018-06-25T10:16:42.868Z,18.37
2018-06-25T10:17:45.681Z,18.19
2018-06-25T10:18:48.735Z,18.24
2018-06-25T10:19:52.344Z,18.28
2018-06-25T10:20:55.161Z,18.32
2018-06-25T10:21:59.361Z,18.36
2018-06-25T10:23:02.573Z,18.28
2018-06-25T10:24:05.419Z,18.21
2018-06-25T10:25:09.251Z,18.18
2018-06-25T10:26:12.022Z,18.27
2018-06-25T10:27:22.136Z,18.39
2018-06-25T10:28:26.538Z,18.46
2018-06-25T10:29:29.316Z,18.57
2018-06-25T10:30:32.759Z,18.66
2018-06-25T10:31:36.368Z,18.66
2018-06-25T10:32:40.210Z,18.68
2018-06-25T10:33:46.692Z,18.68
2018-06-25T10:34:51.565Z,18.53
2018-06-25T10:35:55.720Z,18.44
2018-06-25T10:36:59.710Z,18.47
2018-06-25T10:38:04.294Z,18.57
2018-06-25T10:39:08.588Z,18.46
2018-06-25T10:40:11.893Z,18.19
2018-06-25T10:41:14.654Z,18.18
2018-06-25T10:42:17.468Z,18.21
2018-06-25T10:43:20.380Z,18.30
2018-06-25T10:44:24.761Z,18.40
2018-06-25T10:45:28.539Z,18.55
2018-06-25T10:46:31.735Z,18.56
2018-06-25T10:47:34.527Z,18.65
2018-06-25T10:48:37.344Z,18.54
2018-06-25T10:49:43.138Z,18.48
2018-06-25T10:50:46.883Z,18.54
2018-06-25T10:51:49.719Z,18.35
2018-06-25T10:52:55.321Z,18.23
2018-06-25T10:54:04.355Z,18.16
2018-06-25T10:55:09.394Z,18.10
2018-06-25T10:56:13.850Z,17.98
2018-06-25T10:57:16.643Z,17.85
2018-06-25T10:58:19.524Z,17.98
2018-06-25T10:59:22.669Z,18.23
2018-06-25T11:00:26.466Z,18.31
2018-06-25T11:01:30.407Z,18.52
2018-06-25T11:02:33.217Z,18.82
2018-06-25T11:03:36.766Z,19.02
2018-06-25T11:04:40.353Z,19.07
2018-06-25T11:05:43.561Z,19.14
2018-06-25T11:06:46.403Z,19.10
2018-06-25T11:07:49.264Z,19.01
2018-06-25T11:08:55.678Z,18.98
2018-06-25T11:10:00.396Z,18.99
2018-06-25T11:11:04.126Z,18.83
2018-06-25T11:12:07.374Z,18.72
2018-06-25T11:13:11.724Z,18.79
2018-06-25T11:14:15.441Z,18.69
2018-06-25T11:15:18.227Z,18.79
2018-06-25T11:16:21.088Z,18.69
2018-06-25T11:17:23.865Z,18.75
2018-06-25T11:18:27.047Z,18.68
2018-06-25T11:19:30.440Z,18.67
2018-06-25T11:20:33.859Z,18.77
2018-06-25T11:21:36.668Z,18.85
2018-06-25T11:22:40.000Z,18.60
2018-06-25T11:23:43.379Z,18.60
2018-06-25T11:24:51.261Z,18.58
2018-06-25T11:25:55.435Z,18.70
2018-06-25T11:26:58.354Z,18.73
2018-06-25T11:28:04.448Z,18.82
2018-06-25T11:29:08.379Z,18.73
2018-06-25T11:30:11.245Z,18.75
2018-06-25T11:31:14.531Z,18.84
2018-06-25T11:32:17.335Z,18.83
2018-06-25T11:33:20.188Z,18.81
2018-06-25T11:34:22.956Z,18.82
2018-06-25T11:35:25.787Z,18.88
2018-06-25T11:36:28.610Z,18.84
2018-06-25T11:37:32.006Z,18.80
2018-06-25T11:38:34.846Z,18.87
2018-06-25T11:39:37.734Z,19.07
2018-06-25T11:40:41.676Z,19.14
2018-06-25T11:41:44.464Z,19.13
2018-06-25T11:42:50.924Z,19.09
2018-06-25T11:43:54.067Z,19.01
2018-06-25T11:44:57.969Z,18.98
2018-06-25T11:46:00.984Z,18.88
2018-06-25T11:47:05.342Z,18.85
2018-06-25T11:48:08.891Z,18.81
2018-06-25T11:49:11.705Z,18.91
2018-06-25T11:50:14.866Z,18.85
2018-06-25T11:51:17.649Z,18.94
2018-06-25T11:52:22.029Z,18.85
2018-06-25T11:53:25.539Z,18.91
2018-06-25T11:54:28.411Z,19.08
2018-06-25T11:55:31.285Z,19.10
2018-06-25T11:56:34.596Z,18.99
2018-06-25T11:57:37.578Z,18.95
2018-06-25T11:58:43.243Z,18.87
2018-06-25T11:59:52.282Z,18.98
2018-06-25T12:00:55.631Z,18.88
2018-06-25T12:01:59.489Z,18.81
2018-06-25T12:03:02.663Z,18.55
2018-06-25T12:04:06.283Z,18.52
2018-06-25T12:05:09.554Z,18.45
2018-06-25T12:06:12.692Z,18.50
2018-06-25T12:07:15.835Z,18.46
2018-06-25T12:08:18.643Z,18.40
2018-06-25T12:09:21.435Z,18.42
2018-06-25T12:10:24.353Z,18.49
2018-06-25T12:11:27.195Z,18.49
2018-06-25T12:12:31.002Z,18.49
2018-06-25T12:13:34.406Z,18.50
2018-06-25T12:14:37.565Z,18.55
2018-06-25T12:15:41.265Z,18.55
2018-06-25T12:16:44.070Z,18.50
2018-06-25T12:17:48.690Z,18.34
2018-06-25T12:18:51.770Z,18.31
2018-06-25T12:19:54.676Z,18.35
2018-06-25T12:20:59.984Z,18.38
2018-06-25T12:22:02.934Z,18.37
2018-06-25T12:23:05.825Z,18.56
2018-06-25T12:24:08.522Z,18.56
2018-06-25T12:25:12.241Z,18.86
2018-06-25T12:26:15.541Z,18.92
2018-06-25T12:27:18.318Z,19.01
2018-06-25T12:28:21.958Z,19.04
2018-06-25T12:29:24.748Z,19.04
2018-06-25T12:30:27.572Z,19.01
2018-06-25T12:31:30.418Z,18.97
2018-06-25T12:32:33.578Z,18.85
2018-06-25T12:33:36.405Z,18.79
2018-06-25T12:34:40.198Z,18.85
2018-06-25T12:35:44.560Z,18.91
2018-06-25T12:36:48.322Z,18.88
2018-06-25T12:37:52.540Z,18.78
2018-06-25T12:38:55.628Z,18.78
2018-06-25T12:39:58.540Z,18.80
2018-06-25T12:41:01.380Z,18.88
2018-06-25T12:42:04.914Z,18.93
2018-06-25T12:43:08.402Z,19.04
2018-06-25T12:44:11.311Z,19.03
2018-06-25T12:45:14.677Z,19.17
2018-06-25T12:46:17.672Z,19.15
2018-06-25T12:47:20.533Z,19.04
2018-06-25T12:48:24.263Z,19.04
2018-06-25T12:49:28.343Z,19.11
2018-06-25T12:50:31.562Z,19.05
2018-06-25T12:51:34.371Z,18.92
2018-06-25T12:52:37.763Z,18.80
2018-06-25T12:53:41.545Z,18.89
2018-06-25T12:54:45.344Z,18.76
2018-06-25T12:55:48.181Z,18.73
2018-06-25T12:56:51.569Z,18.71
2018-06-25T12:57:54.509Z,18.76
2018-06-25T12:58:58.996Z,18.72
2018-06-25T13:00:01.806Z,18.61
2018-06-25T13:01:04.606Z,18.50
2018-06-25T13:02:08.386Z,18.39
2018-06-25T13:03:12.662Z,18.41
2018-06-25T13:04:15.482Z,18.37
2018-06-25T13:05:18.571Z,18.37
2018-06-25T13:06:24.652Z,18.24
2018-06-25T13:07:29.336Z,18.21
2018-06-25T13:08:36.068Z,18.07
2018-06-25T13:09:40.905Z,18.07
2018-06-25T13:10:44.944Z,18.00
2018-06-25T13:11:48.617Z,17.86
2018-06-25T13:12:52.270Z,17.80
2018-06-25T13:13:55.715Z,17.90
2018-06-25T13:14:58.991Z,18.04
2018-06-25T13:16:03.065Z,18.16
2018-06-25T13:17:05.955Z,18.24
2018-06-25T13:18:09.636Z,18.27
2018-06-25T13:19:12.462Z,18.38
2018-06-25T13:20:15.300Z,18.45
2018-06-25T13:21:20.912Z,18.61
2018-06-25T13:22:23.720Z,18.93
2018-06-25T13:23:27.242Z,19.05
2018-06-25T13:24:30.083Z,19.12
2018-06-25T13:25:34.131Z,18.55
2018-06-25T13:26:37.116Z,18.56
2018-06-25T13:27:40.957Z,18.66
2018-06-25T13:28:44.753Z,18.82
2018-06-25T13:29:49.222Z,18.80
2018-06-25T13:30:52.049Z,18.73
2018-06-25T13:31:55.705Z,18.77
2018-06-25T13:32:59.621Z,18.77
2018-06-25T13:34:02.492Z,18.71
2018-06-25T13:35:05.623Z,18.54
2018-06-25T13:36:08.709Z,18.41
2018-06-25T13:37:12.383Z,18.20
2018-06-25T13:38:15.385Z,18.09
2018-06-25T13:39:18.237Z,17.94
2018-06-25T13:40:21.079Z,17.92
2018-06-25T13:41:25.278Z,17.88
2018-06-25T13:42:28.146Z,17.93
2018-06-25T13:43:35.798Z,17.96
2018-06-25T13:44:39.374Z,17.97
2018-06-25T13:45:42.304Z,18.05
2018-06-25T13:46:48.086Z,17.99
2018-06-25T13:47:51.552Z,17.99
2018-06-25T13:48:56.635Z,18.03
2018-06-25T13:49:59.415Z,18.04
2018-06-25T13:51:04.051Z,18.06
2018-06-25T13:52:06.822Z,18.06
2018-06-25T13:53:10.594Z,18.16
2018-06-25T13:54:13.682Z,18.19
2018-06-25T13:55:17.244Z,18.20
2018-06-25T13:56:21.763Z,18.37
2018-06-25T13:57:28.496Z,18.35
2018-06-25T13:58:32.226Z,18.33
2018-06-25T13:59:40.599Z,18.23
2018-06-25T14:00:49.458Z,18.41
2018-06-25T14:01:57.121Z,18.56
2018-06-25T14:03:04.836Z,18.73
2018-06-25T14:04:08.827Z,18.81
2018-06-25T14:05:14.341Z,18.87
2018-06-25T14:06:19.117Z,18.86
2018-06-25T14:07:27.314Z,18.97
2018-06-25T14:08:31.418Z,19.01
2018-06-25T14:09:35.072Z,19.04
2018-06-25T14:10:39.215Z,19.06
2018-06-25T14:11:42.701Z,19.13
2018-06-25T14:12:45.516Z,18.84
2018-06-25T14:13:49.469Z,18.93
2018-06-25T14:14:53.078Z,19.10
2018-06-25T14:15:56.459Z,19.17
2018-06-25T14:17:00.485Z,19.24